createdAt,value
2022-08-25T00:00:56.425Z,88.70
2022-08-25T00:03:45.437Z,88.90
2022-08-25T00:06:33.106Z,89.20
2022-08-25T00:09:23.140Z,89.50
2022-08-25T00:12:12.309Z,89.60
2022-08-25T00:14:59.969Z,89.80
2022-08-25T00:17:49.258Z,90.00
2022-08-25T00:20:36.352Z,90.00
2022-08-25T00:23:27.523Z,90.10
2022-08-25T00:26:16.139Z,90.10
2022-08-25T00:29:05.744Z,90.30
2022-08-25T00:31:53.581Z,90.30
2022-08-25T00:34:40.876Z,90.30
2022-08-25T00:37:28.092Z,90.40
2022-08-25T00:40:15.083Z,90.50
2022-08-25T00:43:02.900Z,90.50
2022-08-25T00:45:55.397Z,90.60
2022-08-25T00:48:44.925Z,90.70
2022-08-25T00:51:37.869Z,90.80
2022-08-25T00:54:28.549Z,90.90
2022-08-25T00:57:18.641Z,91.00
2022-08-25T01:00:14.384Z,91.00
2022-08-25T01:03:03.137Z,91.10
2022-08-25T01:05:51.585Z,91.20
2022-08-25T01:08:39.368Z,91.30
2022-08-25T01:11:27.924Z,91.40
2022-08-25T01:14:18.372Z,91.30
2022-08-25T01:17:05.557Z,91.40
2022-08-25T01:19:54.382Z,91.40
2022-08-25T01:22:42.610Z,91.40
2022-08-25T01:25:42.877Z,91.50
2022-08-25T01:28:30.005Z,91.90
2022-08-25T01:31:23.744Z,91.60
2022-08-25T01:34:13.137Z,91.60
2022-08-25T01:37:01.288Z,91.60
2022-08-25T01:39:50.048Z,91.70
2022-08-25T01:42:47.730Z,91.80
2022-08-25T01:45:35.004Z,91.80
2022-08-25T01:48:22.256Z,91.90
2022-08-25T01:51:09.672Z,92.00
2022-08-25T01:53:56.363Z,92.10
2022-08-25T01:56:45.175Z,92.10
2022-08-25T01:59:35.575Z,92.20
2022-08-25T02:02:23.616Z,92.20
2022-08-25T02:05:14.478Z,92.20
2022-08-25T02:08:02.107Z,92.30
2022-08-25T02:10:49.313Z,92.30
2022-08-25T02:13:37.907Z,92.50
2022-08-25T02:16:29.574Z,92.50
2022-08-25T02:19:17.871Z,92.50
2022-08-25T02:22:05.300Z,92.50
2022-08-25T02:24:52.739Z,92.60
2022-08-25T02:27:39.846Z,92.80
2022-08-25T02:30:28.490Z,92.90
2022-08-25T02:33:15.782Z,92.80
2022-08-25T02:36:03.656Z,93.10
2022-08-25T02:38:51.095Z,93.10
2022-08-25T02:41:39.046Z,93.60
2022-08-25T02:44:26.116Z,93.30
2022-08-25T02:47:14.333Z,93.40
2022-08-25T02:50:01.549Z,93.40
2022-08-25T02:52:50.823Z,93.40
2022-08-25T02:55:37.945Z,93.40
2022-08-25T02:58:24.919Z,93.40
2022-08-25T03:01:13.449Z,93.40
2022-08-25T03:04:03.101Z,93.50
2022-08-25T03:06:49.731Z,93.40
2022-08-25T03:09:36.630Z,93.50
2022-08-25T03:12:25.259Z,93.60
2022-08-25T03:15:14.694Z,93.60
2022-08-25T03:18:03.548Z,93.50
2022-08-25T03:20:52.191Z,93.50
2022-08-25T03:23:40.986Z,93.50
2022-08-25T03:26:42.148Z,93.50
2022-08-25T03:29:30.805Z,93.40
2022-08-25T03:32:16.827Z,93.40
2022-08-25T03:35:05.105Z,93.40
2022-08-25T03:37:57.084Z,93.40
2022-08-25T03:40:44.479Z,93.40
2022-08-25T03:43:31.974Z,93.60
2022-08-25T03:46:20.680Z,93.50
2022-08-25T03:49:09.859Z,93.50
2022-08-25T03:51:56.657Z,93.50
2022-08-25T03:54:46.544Z,93.90
2022-08-25T03:57:33.531Z,93.60
2022-08-25T04:00:20.873Z,93.70
2022-08-25T04:03:08.641Z,93.80
2022-08-25T04:05:55.323Z,93.90
2022-08-25T04:08:43.694Z,94.10
2022-08-25T04:11:32.275Z,94.10
2022-08-25T04:14:19.628Z,94.20
2022-08-25T04:17:06.615Z,94.20
2022-08-25T04:19:53.445Z,94.30
2022-08-25T04:22:40.629Z,94.30
2022-08-25T04:25:32.515Z,94.30
2022-08-25T04:28:20.950Z,94.20
2022-08-25T04:31:09.331Z,94.70
2022-08-25T04:33:57.044Z,94.40
2022-08-25T04:36:47.023Z,94.40
2022-08-25T04:39:39.941Z,94.40
2022-08-25T04:42:27.088Z,94.40
2022-08-25T04:45:15.215Z,94.50
2022-08-25T04:48:02.423Z,94.40
2022-08-25T04:50:49.745Z,94.40
2022-08-25T04:53:37.135Z,94.40
2022-08-25T04:56:26.233Z,94.40
2022-08-25T04:59:16.393Z,94.50
2022-08-25T05:02:05.472Z,94.70
2022-08-25T05:04:53.385Z,94.80
2022-08-25T05:07:40.244Z,94.80
2022-08-25T05:10:27.300Z,94.80
2022-08-25T05:13:14.649Z,94.90
2022-08-25T05:16:05.861Z,95.00
2022-08-25T05:18:59.407Z,95.00
2022-08-25T05:21:46.632Z,95.00
2022-08-25T05:24:33.360Z,94.90
2022-08-25T05:27:20.641Z,94.90
2022-08-25T05:30:09.782Z,94.90
2022-08-25T05:32:57.520Z,94.90
2022-08-25T05:35:46.163Z,94.80
2022-08-25T05:38:33.284Z,94.70
2022-08-25T05:41:22.242Z,94.70
2022-08-25T05:44:09.840Z,94.70
2022-08-25T05:46:56.867Z,94.60
2022-08-25T05:49:43.956Z,94.50
2022-08-25T05:52:32.960Z,94.40
2022-08-25T05:55:19.860Z,94.50
2022-08-25T05:58:07.263Z,94.30
2022-08-25T06:00:57.880Z,94.30
2022-08-25T06:03:44.262Z,94.10
2022-08-25T06:06:31.789Z,94.10
2022-08-25T06:09:20.111Z,93.90
2022-08-25T06:12:08.604Z,93.80
2022-08-25T06:14:56.575Z,93.70
2022-08-25T06:17:43.723Z,93.60
2022-08-25T06:20:32.679Z,93.40
2022-08-25T06:23:20.408Z,93.30
2022-08-25T06:26:13.144Z,93.00
2022-08-25T06:29:07.975Z,92.90
2022-08-25T06:31:55.647Z,92.70
2022-08-25T06:34:42.991Z,92.60
2022-08-25T06:37:30.448Z,92.50
2022-08-25T06:40:17.800Z,92.20
2022-08-25T06:43:08.950Z,92.10
2022-08-25T06:45:55.928Z,91.80
2022-08-25T06:48:43.432Z,91.60
2022-08-25T06:51:30.421Z,91.90
2022-08-25T06:54:17.905Z,91.30
2022-08-25T06:57:07.143Z,91.10
2022-08-25T06:59:56.074Z,90.90
2022-08-25T07:02:44.569Z,90.60
2022-08-25T07:05:43.425Z,90.50
2022-08-25T07:08:30.658Z,90.20
2022-08-25T07:11:18.488Z,90.00
2022-08-25T07:14:07.268Z,89.70
2022-08-25T07:16:55.835Z,89.30
2022-08-25T07:19:43.638Z,89.90
2022-08-25T07:22:31.508Z,88.60
2022-08-25T07:25:18.459Z,88.00
2022-08-25T07:28:05.982Z,87.20
2022-08-25T07:31:01.061Z,87.00
2022-08-25T07:34:03.573Z,86.20
2022-08-25T07:36:50.450Z,86.00
2022-08-25T07:39:37.466Z,85.00
2022-08-25T07:42:25.674Z,84.10
2022-08-25T07:45:20.553Z,83.50
2022-08-25T07:48:12.129Z,82.70
2022-08-25T07:51:07.856Z,82.20
2022-08-25T07:53:55.946Z,81.70
2022-08-25T07:56:44.289Z,81.20
2022-08-25T07:59:39.176Z,81.40
2022-08-25T08:02:27.217Z,81.10
2022-08-25T08:05:16.132Z,79.90
2022-08-25T08:08:05.307Z,79.50
2022-08-25T08:11:09.631Z,78.80
2022-08-25T08:13:58.632Z,78.00
2022-08-25T08:16:45.716Z,77.30
2022-08-25T08:19:32.644Z,76.90
2022-08-25T08:22:21.137Z,76.20
2022-08-25T08:25:13.731Z,76.40
2022-08-25T08:28:08.964Z,76.00
2022-08-25T08:30:58.523Z,75.20
2022-08-25T08:33:45.460Z,74.90
2022-08-25T08:36:32.523Z,75.20
2022-08-25T08:39:19.641Z,73.60
2022-08-25T08:42:22.154Z,72.90
2022-08-25T08:45:23.471Z,72.90
2022-08-25T08:48:26.491Z,71.80
2022-08-25T08:51:23.183Z,71.20
2022-08-25T08:54:18.881Z,70.70
2022-08-25T08:57:13.115Z,69.40
2022-08-25T09:00:03.896Z,68.40
2022-08-25T09:02:57.961Z,67.60
2022-08-25T09:05:49.656Z,67.40
2022-08-25T09:08:39.130Z,66.00
2022-08-25T09:11:53.873Z,66.00
2022-08-25T09:14:55.130Z,64.90
2022-08-25T09:17:56.375Z,65.10
2022-08-25T09:20:55.002Z,64.80
2022-08-25T09:23:56.672Z,65.30
2022-08-25T09:26:51.081Z,64.70
2022-08-25T09:30:00.394Z,63.30
2022-08-25T09:32:50.466Z,63.60
2022-08-25T09:35:42.093Z,63.60
2022-08-25T09:38:32.307Z,62.20
2022-08-25T09:41:35.715Z,62.20
2022-08-25T09:44:26.861Z,61.50
2022-08-25T09:47:25.435Z,61.40
2022-08-25T09:50:19.090Z,60.30
2022-08-25T09:53:17.337Z,59.30
2022-08-25T09:56:08.157Z,60.20
2022-08-25T09:59:01.143Z,59.90
2022-08-25T10:01:51.719Z,60.20
2022-08-25T10:04:41.434Z,60.70
2022-08-25T10:07:36.083Z,60.40
2022-08-25T10:10:32.420Z,61.00
2022-08-25T10:13:23.771Z,59.10
2022-08-25T10:16:24.511Z,58.60
2022-08-25T10:19:15.896Z,58.30
2022-08-25T10:22:10.953Z,58.20
2022-08-25T10:24:58.902Z,58.20
2022-08-25T10:27:56.797Z,58.30
2022-08-25T10:31:00.487Z,58.40
2022-08-25T10:34:01.549Z,58.40
2022-08-25T10:37:00.082Z,58.20
2022-08-25T10:39:58.926Z,58.10
2022-08-25T10:42:58.824Z,58.10
2022-08-25T10:45:51.202Z,58.50
2022-08-25T10:48:52.647Z,57.50
2022-08-25T10:51:51.323Z,57.40
2022-08-25T10:54:48.674Z,57.60
2022-08-25T10:57:46.944Z,57.40
2022-08-25T11:00:41.840Z,58.30
2022-08-25T11:03:47.177Z,57.50
2022-08-25T11:06:43.776Z,57.50
2022-08-25T11:09:39.212Z,57.10
2022-08-25T11:12:32.332Z,57.20
2022-08-25T11:15:26.110Z,57.40
2022-08-25T11:18:16.001Z,58.00
2022-08-25T11:21:09.663Z,57.20
2022-08-25T11:24:03.300Z,56.50
2022-08-25T11:26:57.510Z,56.20
2022-08-25T11:29:50.519Z,56.10
2022-08-25T11:32:39.510Z,56.30
2022-08-25T11:35:32.737Z,56.60
2022-08-25T11:38:34.986Z,56.70
2022-08-25T11:41:30.620Z,56.80
2022-08-25T11:44:45.621Z,56.40
2022-08-25T11:48:05.707Z,56.10
2022-08-25T11:50:58.886Z,55.90
2022-08-25T11:53:46.458Z,56.10
2022-08-25T11:56:40.268Z,56.20
2022-08-25T11:59:57.660Z,56.30
2022-08-25T12:02:46.660Z,56.90
2022-08-25T12:05:53.330Z,56.90
2022-08-25T12:08:49.905Z,56.70
2022-08-25T12:11:51.356Z,57.30
2022-08-25T12:14:44.718Z,56.80
2022-08-25T12:17:40.006Z,57.40
2022-08-25T12:20:56.451Z,56.10
2022-08-25T12:23:51.577Z,56.00
2022-08-25T12:26:46.964Z,57.20
2022-08-25T12:29:42.200Z,56.90
2022-08-25T12:32:46.169Z,56.30
2022-08-25T12:35:38.419Z,55.30
2022-08-25T12:38:32.919Z,55.00
2022-08-25T12:41:27.036Z,55.10
2022-08-25T12:44:39.072Z,54.40
2022-08-25T12:47:32.346Z,54.30
2022-08-25T12:50:56.242Z,55.20
2022-08-25T12:53:47.449Z,55.20
2022-08-25T12:56:42.051Z,54.50
2022-08-25T12:59:38.672Z,54.20
2022-08-25T13:02:52.885Z,54.50
2022-08-25T13:05:49.829Z,54.40
2022-08-25T13:08:51.815Z,54.90
2022-08-25T13:11:49.681Z,54.80
2022-08-25T13:14:41.623Z,54.70
2022-08-25T13:17:33.926Z,54.70
2022-08-25T13:20:25.649Z,56.00
2022-08-25T13:23:13.409Z,54.50
2022-08-25T13:26:00.148Z,55.10
2022-08-25T13:28:55.182Z,55.30
2022-08-25T13:31:54.986Z,55.40
2022-08-25T13:34:43.395Z,54.40
2022-08-25T13:37:31.415Z,54.40
2022-08-25T13:40:27.843Z,54.30
2022-08-25T13:43:15.914Z,54.30
2022-08-25T13:46:05.728Z,54.80
2022-08-25T13:49:05.421Z,54.60
2022-08-25T13:51:55.256Z,55.00
2022-08-25T13:54:43.797Z,55.30
2022-08-25T13:57:33.820Z,54.30
2022-08-25T14:00:32.710Z,54.80
2022-08-25T14:03:35.051Z,54.70
2022-08-25T14:06:23.663Z,55.40
2022-08-25T14:09:17.000Z,55.20
2022-08-25T14:12:04.492Z,55.50
2022-08-25T14:15:00.470Z,54.80
2022-08-25T14:17:50.911Z,54.30
2022-08-25T14:20:44.582Z,53.80
2022-08-25T14:23:32.362Z,54.30
2022-08-25T14:26:19.725Z,54.10
2022-08-25T14:29:08.146Z,55.50
2022-08-25T14:31:57.665Z,53.80
2022-08-25T14:34:45.985Z,53.70
2022-08-25T14:37:34.768Z,53.40
2022-08-25T14:40:22.709Z,54.20
2022-08-25T14:43:10.855Z,54.00
2022-08-25T14:45:57.844Z,53.40
2022-08-25T14:48:49.014Z,53.30
2022-08-25T14:51:40.372Z,53.60
2022-08-25T14:54:29.432Z,53.80
2022-08-25T14:57:17.069Z,53.60
2022-08-25T15:00:05.770Z,54.70
2022-08-25T15:02:58.414Z,55.60
2022-08-25T15:05:46.478Z,56.30
2022-08-25T15:08:49.585Z,54.80
2022-08-25T15:11:41.690Z,54.30
2022-08-25T15:14:33.307Z,54.60
2022-08-25T15:17:20.556Z,54.20
2022-08-25T15:20:08.415Z,54.40
2022-08-25T15:22:58.316Z,55.00
2022-08-25T15:25:48.774Z,55.20
2022-08-25T15:28:43.545Z,56.00
2022-08-25T15:31:31.603Z,55.70
2022-08-25T15:34:19.394Z,55.80
2022-08-25T15:37:10.293Z,55.90
2022-08-25T15:39:57.320Z,56.10
2022-08-25T15:42:45.914Z,56.20
2022-08-25T15:45:36.392Z,56.80
2022-08-25T15:48:23.816Z,57.00
2022-08-25T15:51:12.269Z,57.00
2022-08-25T15:53:59.325Z,57.00
2022-08-25T15:56:47.337Z,57.20
2022-08-25T15:59:35.085Z,57.10
2022-08-25T16:02:24.413Z,57.10
2022-08-25T16:05:16.447Z,57.30
2022-08-25T16:08:04.452Z,57.30
2022-08-25T16:10:52.276Z,57.00
2022-08-25T16:13:40.313Z,57.00
2022-08-25T16:16:32.411Z,58.30
2022-08-25T16:19:21.232Z,57.20
2022-08-25T16:22:08.922Z,56.90
2022-08-25T16:24:58.211Z,56.90
2022-08-25T16:27:45.652Z,56.80
2022-08-25T16:30:32.784Z,57.40
2022-08-25T16:33:19.884Z,57.60
2022-08-25T16:36:12.146Z,57.50
2022-08-25T16:39:01.111Z,57.50
2022-08-25T16:41:48.458Z,57.50
2022-08-25T16:44:39.971Z,57.70
2022-08-25T16:47:27.678Z,57.90
2022-08-25T16:50:16.269Z,57.80
2022-08-25T16:53:18.519Z,57.80
2022-08-25T16:56:07.555Z,58.00
2022-08-25T16:58:59.871Z,58.10
2022-08-25T17:01:45.667Z,58.20
2022-08-25T17:04:33.052Z,58.10
2022-08-25T17:07:23.867Z,58.00
2022-08-25T17:10:12.950Z,58.50
2022-08-25T17:13:00.395Z,59.10
2022-08-25T17:15:52.204Z,59.30
2022-08-25T17:18:40.566Z,59.60
2022-08-25T17:21:29.353Z,59.90
2022-08-25T17:24:16.977Z,60.30
2022-08-25T17:27:05.569Z,60.50
2022-08-25T17:29:52.847Z,60.70
2022-08-25T17:32:40.080Z,60.90
2022-08-25T17:35:27.979Z,61.30
2022-08-25T17:38:16.039Z,61.60
2022-08-25T17:41:06.823Z,62.00
2022-08-25T17:43:55.473Z,62.10
2022-08-25T17:46:47.455Z,62.50
2022-08-25T17:49:35.044Z,62.80
2022-08-25T17:52:25.489Z,62.90
2022-08-25T17:55:13.085Z,63.10
2022-08-25T17:58:04.322Z,63.30
2022-08-25T18:00:52.868Z,63.60
2022-08-25T18:03:40.120Z,63.70
2022-08-25T18:06:31.387Z,64.00
2022-08-25T18:09:19.232Z,64.10
2022-08-25T18:12:06.628Z,64.60
2022-08-25T18:14:53.413Z,64.50
2022-08-25T18:17:45.266Z,64.80
2022-08-25T18:20:32.591Z,65.20
2022-08-25T18:23:19.830Z,65.60
2022-08-25T18:26:07.234Z,66.50
2022-08-25T18:28:54.303Z,66.50
2022-08-25T18:31:42.402Z,66.70
2022-08-25T18:34:31.850Z,66.70
2022-08-25T18:37:33.878Z,67.70
2022-08-25T18:40:23.678Z,68.10
2022-08-25T18:43:12.697Z,67.70
2022-08-25T18:45:59.288Z,67.90
2022-08-25T18:48:46.717Z,68.20
2022-08-25T18:51:34.880Z,68.50
2022-08-25T18:54:23.297Z,68.80
2022-08-25T18:57:12.252Z,69.30
2022-08-25T18:59:59.528Z,69.50
2022-08-25T19:02:47.916Z,70.00
2022-08-25T19:05:38.594Z,70.30
2022-08-25T19:08:28.012Z,70.60
2022-08-25T19:11:16.047Z,71.10
2022-08-25T19:14:03.294Z,71.40
2022-08-25T19:16:59.500Z,71.70
2022-08-25T19:19:47.995Z,72.30
2022-08-25T19:22:41.795Z,72.60
2022-08-25T19:25:33.216Z,73.00
2022-08-25T19:28:21.982Z,73.30
2022-08-25T19:31:09.041Z,73.50
2022-08-25T19:33:59.321Z,73.90
2022-08-25T19:36:47.073Z,74.30
2022-08-25T19:39:42.018Z,74.80
2022-08-25T19:42:38.117Z,75.00
2022-08-25T19:45:26.995Z,75.20
2022-08-25T19:48:15.324Z,75.40
2022-08-25T19:51:02.500Z,75.50
2022-08-25T19:53:54.038Z,76.10
2022-08-25T19:56:43.495Z,76.10
2022-08-25T19:59:47.490Z,75.60
2022-08-25T20:02:36.442Z,77.20
2022-08-25T20:05:25.009Z,77.00
2022-08-25T20:08:12.173Z,77.00
2022-08-25T20:10:59.123Z,76.70
2022-08-25T20:13:46.509Z,76.70
2022-08-25T20:16:38.763Z,77.30
2022-08-25T20:19:26.096Z,77.40
2022-08-25T20:22:17.726Z,77.50
2022-08-25T20:25:13.448Z,77.30
2022-08-25T20:28:01.864Z,77.40
2022-08-25T20:30:48.965Z,77.70
2022-08-25T20:33:37.569Z,77.90
2022-08-25T20:36:27.030Z,78.20
2022-08-25T20:39:14.015Z,78.10
2022-08-25T20:42:00.749Z,78.60
2022-08-25T20:44:47.738Z,78.50
2022-08-25T20:47:35.396Z,78.70
2022-08-25T20:50:24.718Z,79.50
2022-08-25T20:53:15.893Z,79.10
2022-08-25T20:56:09.193Z,79.10
2022-08-25T20:58:56.576Z,79.20
2022-08-25T21:01:43.882Z,80.00
2022-08-25T21:04:32.154Z,80.20
2022-08-25T21:07:21.161Z,80.20
2022-08-25T21:10:14.495Z,80.40
2022-08-25T21:13:02.027Z,81.00
2022-08-25T21:15:48.947Z,81.30
2022-08-25T21:18:37.089Z,81.20
2022-08-25T21:21:24.990Z,81.60
2022-08-25T21:24:18.622Z,82.10
2022-08-25T21:27:06.415Z,81.80
2022-08-25T21:29:54.601Z,82.30
2022-08-25T21:32:53.513Z,82.50
2022-08-25T21:35:42.866Z,82.20
2022-08-25T21:38:30.435Z,82.50
2022-08-25T21:41:23.144Z,82.70
2022-08-25T21:44:11.311Z,82.90
2022-08-25T21:46:58.986Z,83.30
2022-08-25T21:49:45.949Z,83.80
2022-08-25T21:52:32.947Z,84.10
2022-08-25T21:55:20.131Z,84.10
2022-08-25T21:58:10.191Z,84.50
2022-08-25T22:00:57.601Z,84.50
2022-08-25T22:03:47.243Z,84.70
2022-08-25T22:06:35.945Z,84.80
2022-08-25T22:09:23.194Z,85.20
2022-08-25T22:12:10.913Z,85.30
2022-08-25T22:14:59.436Z,85.40
2022-08-25T22:17:48.158Z,85.60
2022-08-25T22:20:35.534Z,85.80
2022-08-25T22:23:28.292Z,86.00
2022-08-25T22:26:16.340Z,86.20
2022-08-25T22:29:09.637Z,86.60
2022-08-25T22:32:02.208Z,86.80
2022-08-25T22:34:49.680Z,86.40
2022-08-25T22:37:36.920Z,86.80
2022-08-25T22:40:24.574Z,87.10
2022-08-25T22:43:11.497Z,87.10
2022-08-25T22:46:03.242Z,87.30
2022-08-25T22:48:51.764Z,87.80
2022-08-25T22:51:39.882Z,87.80
2022-08-25T22:54:27.143Z,88.20
2022-08-25T22:57:17.105Z,88.20
2022-08-25T23:00:07.847Z,88.40
2022-08-25T23:02:54.916Z,88.50
2022-08-25T23:05:44.371Z,88.70
2022-08-25T23:08:40.708Z,88.80
2022-08-25T23:11:28.956Z,88.80
2022-08-25T23:14:16.508Z,89.20
2022-08-25T23:17:08.678Z,89.30
2022-08-25T23:19:55.835Z,89.30
2022-08-25T23:22:43.386Z,89.60
2022-08-25T23:25:31.375Z,89.60
2022-08-25T23:28:18.814Z,89.70
2022-08-25T23:31:07.735Z,89.80
2022-08-25T23:33:58.923Z,90.00
2022-08-25T23:36:46.681Z,90.00
2022-08-25T23:39:35.817Z,90.20
2022-08-25T23:42:26.770Z,90.30
2022-08-25T23:45:14.726Z,90.30
2022-08-25T23:48:01.834Z,90.40
2022-08-25T23:50:53.939Z,90.50
2022-08-25T23:53:41.757Z,90.50
2022-08-25T23:56:30.131Z,90.60
2022-08-25T23:59:17.698Z,90.60
